Flight Track Log - Related Links

Times and Time Zones

All times are in EDT time to prevent confusion due to time zone crossing. See the AUB2163 flight status page for this flight to view local times or setup timezone preferences in your user account.

Time Position Orientation Groundspeed Altitude Reporting Facility
EDT Latitude Longitude Course Direction KTS MPH feet Rate Location/Type
Sat 12:20:00 AM 49.3009 11.2029 158° South  Level Estimated
Sat 12:21:00 AM 49.2515 11.2339 158° South  Level Estimated
Sat 12:22:00 AM 49.2021 11.2649 158° South  Level Estimated
Sat 12:23:00 AM 49.1526 11.2958 158° South  Level Estimated
Sat 12:24:00 AM 49.1031 11.3267 158° South  Level Estimated
Sat 12:25:00 AM 49.0536 11.3575 158° South  Level Estimated
Sat 12:26:00 AM 49.0042 11.3882 158° South  Level Estimated
Sat 12:27:00 AM 48.9547 11.4189 158° South  Level Estimated
Sat 12:28:00 AM 48.9052 11.4495 158° South  Level Estimated
Sat 12:29:00 AM 48.8557 11.4800 158° South  Level Estimated
Sat 12:30:00 AM 48.8061 11.5105 158° South  Level Estimated
Sat 12:31:00 AM 48.7566 11.5409 158° South  Level Estimated
Sat 12:32:00 AM 48.7071 11.5713 158° South  Level Estimated
Sat 12:33:00 AM 48.6576 11.6016 158° South  Level Estimated
Sat 12:34:00 AM 48.6080 11.6319 158° South  Level Estimated
Sat 12:35:00 AM 48.5584 11.6621 158° South  Level Estimated
Sat 12:36:00 AM 48.5089 11.6922 158° South  Level Estimated
Sat 12:37:00 AM 48.4593 11.7223 158° South  Level Estimated
Sat 12:38:00 AM 48.4097 11.7523 158° South  Level Estimated
Sat 12:39:00 AM 48.3601 11.7823 158° South  Level Estimated
Sat 12:40:00 AM 48.3538 11.7861 158° South  Level Estimated
Sat 12:41:00 AM 48.3538 11.7861 318° Northwest  Level Estimated
Sat 12:42:00 AM 48.3538 11.7861 318° Northwest  Level Estimated
Sat 12:43:00 AM 48.3538 11.7861 318° Northwest  Level Estimated
Sat 12:44:00 AM 48.3538 11.7861 318° Northwest  Level Estimated
Sat 12:45:00 AM 48.3538 11.7861 318° Northwest  Level Estimated
Sat 12:46:00 AM 48.3538 11.7861 318° Northwest  Level Estimated
Sat 12:47:00 AM 48.3538 11.7861 318° Northwest  Level Estimated
Sat 12:48:00 AM 48.3538 11.7861 318° Northwest  Level Estimated
Sat 12:49:00 AM 48.3538 11.7861 318° Northwest  Level Estimated
Sat 12:50:00 AM 48.3538 11.7861 318° Northwest  Level Estimated
Sat 12:51:00 AM 48.3538 11.7861 318° Northwest  Level Estimated
Sat 12:52:00 AM 48.3538 11.7861 318° Northwest  Level Estimated
Sat 12:53:00 AM 48.3538 11.7861 318° Northwest  Level Estimated
Sat 12:54:00 AM 48.3538 11.7861 318° Northwest  Level Estimated
Sat 12:55:00 AM 48.3538 11.7861 318° Northwest  Level Estimated

Login

Don't have an account? Register now (free) for customized features, flight alerts, and more!